createdAt,value
2019-01-27T00:00:48.062Z,993.65
2019-01-27T00:01:48.052Z,993.64
2019-01-27T00:02:48.042Z,993.65
2019-01-27T00:03:48.031Z,993.61
2019-01-27T00:04:48.022Z,993.63
2019-01-27T00:05:48.009Z,993.63
2019-01-27T00:06:48.002Z,993.61
2019-01-27T00:07:47.988Z,993.57
2019-01-27T00:08:47.979Z,993.61
2019-01-27T00:09:47.966Z,993.63
2019-01-27T00:10:47.957Z,993.59
2019-01-27T00:11:47.950Z,993.58
2019-01-27T00:12:47.935Z,993.53
2019-01-27T00:13:47.927Z,993.54
2019-01-27T00:14:47.914Z,993.61
2019-01-27T00:15:47.906Z,993.55
2019-01-27T00:16:47.934Z,993.58
2019-01-27T00:17:47.884Z,993.56
2019-01-27T00:18:47.869Z,993.57
2019-01-27T00:19:47.860Z,993.54
2019-01-27T00:20:47.852Z,993.53
2019-01-27T00:21:47.843Z,993.55
2019-01-27T00:22:47.841Z,993.56
2019-01-27T00:23:47.819Z,993.54
2019-01-27T00:24:47.808Z,993.53
2019-01-27T00:25:47.796Z,993.52
2019-01-27T00:26:47.787Z,993.49
2019-01-27T00:27:47.775Z,993.47
2019-01-27T00:28:47.766Z,993.52
2019-01-27T00:29:47.754Z,993.44
2019-01-27T00:30:47.749Z,993.46
2019-01-27T00:31:47.732Z,993.45
2019-01-27T00:32:47.722Z,993.46
2019-01-27T00:33:47.717Z,993.47
2019-01-27T00:34:47.700Z,993.41
2019-01-27T00:35:47.691Z,993.44
2019-01-27T00:36:47.682Z,993.40
2019-01-27T00:37:47.669Z,993.40
2019-01-27T00:38:47.658Z,993.35
2019-01-27T00:39:47.650Z,993.35
2019-01-27T00:40:47.639Z,993.40
2019-01-27T00:41:47.629Z,993.39
2019-01-27T00:42:47.616Z,993.36
2019-01-27T00:43:47.621Z,993.30
2019-01-27T00:44:47.595Z,993.33
2019-01-27T00:45:47.586Z,993.32
2019-01-27T00:46:47.582Z,993.30
2019-01-27T00:47:47.566Z,993.27
2019-01-27T00:48:47.557Z,993.29
2019-01-27T00:49:47.541Z,993.31
2019-01-27T00:50:47.535Z,993.25
2019-01-27T00:51:47.526Z,993.23
2019-01-27T00:52:47.509Z,993.22
2019-01-27T00:53:47.499Z,993.25
2019-01-27T00:54:47.489Z,993.21
2019-01-27T00:55:47.479Z,993.20
2019-01-27T00:56:47.469Z,993.19
2019-01-27T00:57:47.459Z,993.19
2019-01-27T00:58:47.447Z,993.17
2019-01-27T00:59:47.435Z,993.14
2019-01-27T01:00:47.425Z,993.14
2019-01-27T01:01:47.415Z,993.15
2019-01-27T01:02:47.409Z,993.10
2019-01-27T01:03:47.399Z,993.14
2019-01-27T01:04:47.382Z,993.12
2019-01-27T01:05:47.375Z,993.12
2019-01-27T01:06:47.362Z,993.13
2019-01-27T01:07:47.360Z,993.15
2019-01-27T01:08:47.342Z,993.20
2019-01-27T01:09:47.330Z,993.13
2019-01-27T01:10:47.323Z,993.11
2019-01-27T01:11:47.312Z,993.09
2019-01-27T01:12:47.297Z,993.12
2019-01-27T01:13:47.287Z,993.03
2019-01-27T01:14:47.278Z,993.03
2019-01-27T01:15:47.269Z,993.04
2019-01-27T01:16:47.257Z,993.02
2019-01-27T01:17:47.246Z,992.98
2019-01-27T01:18:47.234Z,992.96
2019-01-27T01:19:47.224Z,992.91
2019-01-27T01:20:47.214Z,992.96
2019-01-27T01:21:47.204Z,992.94
2019-01-27T01:22:47.194Z,992.88
2019-01-27T01:23:47.181Z,992.84
2019-01-27T01:24:47.172Z,992.83
2019-01-27T01:25:47.160Z,992.86
2019-01-27T01:26:47.155Z,992.81
2019-01-27T01:27:47.142Z,992.78
2019-01-27T01:28:47.131Z,992.77
2019-01-27T01:29:47.118Z,992.80
2019-01-27T01:30:47.107Z,992.77
2019-01-27T01:31:47.098Z,992.79
2019-01-27T01:32:47.086Z,992.72
2019-01-27T01:33:47.076Z,992.64
2019-01-27T01:34:47.068Z,992.67
2019-01-27T01:35:47.057Z,992.70
2019-01-27T01:36:47.047Z,992.66
2019-01-27T01:37:47.032Z,992.70
2019-01-27T01:38:47.024Z,992.69
2019-01-27T01:39:47.013Z,992.66
2019-01-27T01:40:47.963Z,992.60
2019-01-27T01:41:46.994Z,992.56
2019-01-27T01:42:46.982Z,992.58
2019-01-27T01:43:46.969Z,992.54
2019-01-27T01:44:46.962Z,992.55
2019-01-27T01:45:46.950Z,992.53
2019-01-27T01:46:46.938Z,992.46
2019-01-27T01:47:46.928Z,992.46
2019-01-27T01:48:46.919Z,992.40
2019-01-27T01:49:46.911Z,992.36
2019-01-27T01:50:46.901Z,992.29
2019-01-27T01:51:46.885Z,992.31
2019-01-27T01:52:46.876Z,992.28
2019-01-27T01:53:46.864Z,992.26
2019-01-27T01:54:46.855Z,992.24
2019-01-27T01:55:46.845Z,992.20
2019-01-27T01:56:46.832Z,992.15
2019-01-27T01:57:46.822Z,992.12
2019-01-27T01:58:46.811Z,992.13
2019-01-27T01:59:46.803Z,992.10
2019-01-27T02:00:46.795Z,992.08
2019-01-27T02:01:46.782Z,992.08
2019-01-27T02:02:46.769Z,992.08
2019-01-27T02:03:46.760Z,992.06
2019-01-27T02:04:46.750Z,992.06
2019-01-27T02:05:46.739Z,992.02
2019-01-27T02:06:46.726Z,992.02
2019-01-27T02:07:46.719Z,991.98
2019-01-27T02:08:46.706Z,991.97
2019-01-27T02:09:46.695Z,991.97
2019-01-27T02:10:46.687Z,991.97
2019-01-27T02:11:46.679Z,991.92
2019-01-27T02:12:46.664Z,991.86
2019-01-27T02:13:46.653Z,991.87
2019-01-27T02:14:46.650Z,991.85
2019-01-27T02:15:46.630Z,991.75
2019-01-27T02:16:46.620Z,991.85
2019-01-27T02:17:46.611Z,991.81
2019-01-27T02:18:46.603Z,991.81
2019-01-27T02:19:46.590Z,991.82
2019-01-27T02:20:46.585Z,991.77
2019-01-27T02:21:46.567Z,991.72
2019-01-27T02:22:46.561Z,991.70
2019-01-27T02:23:46.550Z,991.70
2019-01-27T02:24:46.536Z,991.67
2019-01-27T02:25:46.526Z,991.67
2019-01-27T02:26:46.520Z,991.61
2019-01-27T02:27:46.506Z,991.61
2019-01-27T02:28:46.496Z,991.57
2019-01-27T02:29:46.482Z,991.55
2019-01-27T02:30:46.475Z,991.57
2019-01-27T02:31:46.465Z,991.51
2019-01-27T02:32:46.452Z,991.55
2019-01-27T02:33:46.442Z,991.53
2019-01-27T02:34:46.436Z,991.51
2019-01-27T02:35:46.422Z,991.51
2019-01-27T02:36:46.410Z,991.49
2019-01-27T02:37:46.404Z,991.46
2019-01-27T02:38:46.390Z,991.46
2019-01-27T02:39:46.376Z,991.44
2019-01-27T02:40:46.366Z,991.35
2019-01-27T02:41:46.362Z,991.39
2019-01-27T02:42:46.346Z,991.31
2019-01-27T02:43:46.335Z,991.33
2019-01-27T02:44:46.324Z,991.29
2019-01-27T02:45:46.314Z,991.32
2019-01-27T02:46:46.303Z,991.29
2019-01-27T02:47:46.294Z,991.24
2019-01-27T02:48:46.283Z,991.17
2019-01-27T02:49:46.271Z,991.17
2019-01-27T02:50:46.265Z,991.12
2019-01-27T02:51:46.250Z,991.14
2019-01-27T02:52:46.242Z,991.07
2019-01-27T02:53:46.269Z,991.10
2019-01-27T02:54:46.219Z,991.09
2019-01-27T02:55:46.208Z,991.01
2019-01-27T02:56:46.199Z,990.97
2019-01-27T02:57:46.189Z,990.93
2019-01-27T02:58:46.177Z,990.93
2019-01-27T02:59:46.166Z,990.90
2019-01-27T03:00:46.157Z,990.84
2019-01-27T03:01:46.144Z,990.86
2019-01-27T03:02:46.132Z,990.86
2019-01-27T03:03:46.125Z,990.84
2019-01-27T03:04:46.115Z,990.83
2019-01-27T03:05:46.103Z,990.78
2019-01-27T03:06:46.090Z,990.68
2019-01-27T03:07:46.082Z,990.72
2019-01-27T03:08:46.071Z,990.71
2019-01-27T03:09:46.065Z,990.65
2019-01-27T03:10:46.051Z,990.69
2019-01-27T03:11:46.044Z,990.62
2019-01-27T03:12:46.031Z,990.66
2019-01-27T03:13:46.019Z,990.65
2019-01-27T03:14:46.015Z,990.59
2019-01-27T03:15:45.997Z,990.62
2019-01-27T03:16:45.986Z,990.58
2019-01-27T03:17:45.977Z,990.59
2019-01-27T03:18:45.967Z,990.58
2019-01-27T03:19:45.956Z,990.53
2019-01-27T03:20:45.947Z,990.59
2019-01-27T03:21:45.932Z,990.55
2019-01-27T03:22:45.946Z,990.51
2019-01-27T03:23:45.915Z,990.51
2019-01-27T03:24:45.902Z,990.52
2019-01-27T03:25:45.893Z,990.48
2019-01-27T03:26:45.880Z,990.52
2019-01-27T03:27:45.869Z,990.42
2019-01-27T03:28:45.861Z,990.44
2019-01-27T03:29:45.847Z,990.41
2019-01-27T03:30:45.839Z,990.42
2019-01-27T03:31:45.827Z,990.43
2019-01-27T03:32:45.820Z,990.36
2019-01-27T03:33:45.805Z,990.38
2019-01-27T03:34:45.808Z,990.37
2019-01-27T03:35:45.790Z,990.45
2019-01-27T03:36:45.781Z,990.37
2019-01-27T03:37:45.766Z,990.37
2019-01-27T03:38:45.757Z,990.34
2019-01-27T03:39:45.743Z,990.29
2019-01-27T03:40:45.735Z,990.24
2019-01-27T03:41:45.723Z,990.24
2019-01-27T03:42:45.713Z,990.25
2019-01-27T03:43:45.707Z,990.24
2019-01-27T03:44:45.689Z,990.20
2019-01-27T03:45:45.679Z,990.19
2019-01-27T03:46:45.668Z,990.21
2019-01-27T03:47:45.662Z,990.22
2019-01-27T03:48:45.650Z,990.19
2019-01-27T03:49:45.638Z,990.23
2019-01-27T03:50:45.626Z,990.24
2019-01-27T03:51:45.614Z,990.23
2019-01-27T03:52:45.613Z,990.16
2019-01-27T03:53:45.610Z,990.16
2019-01-27T03:54:45.583Z,990.14
2019-01-27T03:55:45.572Z,990.09
2019-01-27T03:56:45.563Z,990.14
2019-01-27T03:57:45.555Z,990.10
2019-01-27T03:58:45.541Z,990.05
2019-01-27T03:59:45.546Z,990.08
2019-01-27T04:00:45.521Z,990.05
2019-01-27T04:01:45.516Z,990.03
2019-01-27T04:02:45.499Z,990.02
2019-01-27T04:03:45.499Z,990.03
2019-01-27T04:04:45.478Z,989.97
2019-01-27T04:05:45.511Z,989.95
2019-01-27T04:06:45.459Z,989.85
2019-01-27T04:07:45.448Z,989.87
2019-01-27T04:08:45.439Z,989.85
2019-01-27T04:09:45.425Z,989.85
2019-01-27T04:10:45.417Z,989.77
2019-01-27T04:11:45.414Z,989.75
2019-01-27T04:12:45.406Z,989.73
2019-01-27T04:13:45.385Z,989.73
2019-01-27T04:14:45.382Z,989.70
2019-01-27T04:15:45.363Z,989.64
2019-01-27T04:16:45.358Z,989.63
2019-01-27T04:17:45.342Z,989.58
2019-01-27T04:18:45.330Z,989.59
2019-01-27T04:19:45.325Z,989.63
2019-01-27T04:20:45.310Z,989.61
2019-01-27T04:21:45.296Z,989.62
2019-01-27T04:22:45.288Z,989.59
2019-01-27T04:23:45.275Z,989.52
2019-01-27T04:24:45.266Z,989.58
2019-01-27T04:25:45.256Z,989.48
2019-01-27T04:26:45.247Z,989.50
2019-01-27T04:27:45.236Z,989.47
2019-01-27T04:28:45.224Z,989.44
2019-01-27T04:29:45.213Z,989.37
2019-01-27T04:30:45.205Z,989.41
2019-01-27T04:31:45.193Z,989.40
2019-01-27T04:32:45.186Z,989.37
2019-01-27T04:33:45.175Z,989.40
2019-01-27T04:34:45.169Z,989.41
2019-01-27T04:35:45.149Z,989.40
2019-01-27T04:36:45.139Z,989.39
2019-01-27T04:37:45.130Z,989.39
2019-01-27T04:38:45.120Z,989.37
2019-01-27T04:39:45.108Z,989.29
2019-01-27T04:40:45.099Z,989.31
2019-01-27T04:41:45.087Z,989.29
2019-01-27T04:42:45.078Z,989.25
2019-01-27T04:43:45.066Z,989.32
2019-01-27T04:44:45.055Z,989.28
2019-01-27T04:45:45.044Z,989.27
2019-01-27T04:46:45.042Z,989.25
2019-01-27T04:47:45.025Z,989.21
2019-01-27T04:48:45.015Z,989.22
2019-01-27T04:49:45.008Z,989.21
2019-01-27T04:50:44.991Z,989.23
2019-01-27T04:51:44.980Z,989.21
2019-01-27T04:52:44.977Z,989.14
2019-01-27T04:53:44.959Z,989.15
2019-01-27T04:54:44.949Z,989.12
2019-01-27T04:55:44.937Z,989.10
2019-01-27T04:56:44.928Z,989.10
2019-01-27T04:57:44.939Z,989.12
2019-01-27T04:58:44.912Z,989.05
2019-01-27T04:59:44.895Z,989.06
2019-01-27T05:00:44.886Z,989.02
2019-01-27T05:01:44.877Z,989.01
2019-01-27T05:02:44.867Z,989.02
2019-01-27T05:03:44.853Z,988.98
2019-01-27T05:04:44.845Z,989.04
2019-01-27T05:05:44.832Z,989.04
2019-01-27T05:06:44.821Z,988.99
2019-01-27T05:07:44.810Z,988.97
2019-01-27T05:08:44.800Z,989.03
2019-01-27T05:09:44.792Z,988.96
2019-01-27T05:10:44.782Z,989.01
2019-01-27T05:11:44.772Z,988.99
2019-01-27T05:12:44.757Z,988.94
2019-01-27T05:13:44.747Z,988.90
2019-01-27T05:14:44.739Z,988.88
2019-01-27T05:15:44.727Z,988.90
2019-01-27T05:16:44.716Z,988.87
2019-01-27T05:17:44.706Z,988.82
2019-01-27T05:18:44.694Z,988.89
2019-01-27T05:19:44.685Z,988.81
2019-01-27T05:20:44.675Z,988.78
2019-01-27T05:21:44.670Z,988.77
2019-01-27T05:22:44.652Z,988.69
2019-01-27T05:23:44.643Z,988.79
2019-01-27T05:24:44.634Z,988.71
2019-01-27T05:25:44.621Z,988.69
2019-01-27T05:26:44.611Z,988.68
2019-01-27T05:27:44.600Z,988.69
2019-01-27T05:28:44.591Z,988.70
2019-01-27T05:29:44.581Z,988.67
2019-01-27T05:30:44.569Z,988.65
2019-01-27T05:31:44.557Z,988.64
2019-01-27T05:32:44.547Z,988.65
2019-01-27T05:33:44.539Z,988.63
2019-01-27T05:34:44.524Z,988.58
2019-01-27T05:35:44.516Z,988.60
2019-01-27T05:36:44.506Z,988.62
2019-01-27T05:37:44.497Z,988.57
2019-01-27T05:38:44.485Z,988.52
2019-01-27T05:39:44.477Z,988.49
2019-01-27T05:40:44.463Z,988.49
2019-01-27T05:41:44.456Z,988.50
2019-01-27T05:42:44.441Z,988.47
2019-01-27T05:43:44.430Z,988.47
2019-01-27T05:44:44.422Z,988.45
2019-01-27T05:45:44.413Z,988.46
2019-01-27T05:46:44.399Z,988.42
2019-01-27T05:47:44.388Z,988.42
2019-01-27T05:48:44.382Z,988.39
2019-01-27T05:49:44.369Z,988.39
2019-01-27T05:50:44.358Z,988.38
2019-01-27T05:51:44.349Z,988.42
2019-01-27T05:52:44.335Z,988.40
2019-01-27T05:53:44.326Z,988.41
2019-01-27T05:54:44.314Z,988.34
2019-01-27T05:55:44.302Z,988.34
2019-01-27T05:56:44.297Z,988.38
2019-01-27T05:57:44.282Z,988.34
2019-01-27T05:58:44.274Z,988.39
2019-01-27T05:59:44.261Z,988.32
2019-01-27T06:00:44.255Z,988.30
2019-01-27T06:01:44.254Z,988.36
2019-01-27T06:02:44.229Z,988.32
2019-01-27T06:03:44.219Z,988.31
2019-01-27T06:04:44.208Z,988.27
2019-01-27T06:05:44.197Z,988.26
2019-01-27T06:06:44.187Z,988.26
2019-01-27T06:07:44.178Z,988.26
2019-01-27T06:08:44.173Z,988.23
2019-01-27T06:09:44.156Z,988.19
2019-01-27T06:10:44.144Z,988.19
2019-01-27T06:11:44.145Z,988.14
2019-01-27T06:12:44.129Z,988.18
2019-01-27T06:13:44.112Z,988.12
2019-01-27T06:14:44.104Z,988.11
2019-01-27T06:15:44.093Z,988.09
2019-01-27T06:16:44.082Z,988.09
2019-01-27T06:17:44.072Z,988.03
2019-01-27T06:18:44.060Z,988.06
2019-01-27T06:19:44.052Z,988.05
2019-01-27T06:20:44.041Z,987.99
2019-01-27T06:21:44.029Z,987.98
2019-01-27T06:22:44.019Z,987.97
2019-01-27T06:23:44.009Z,987.96
2019-01-27T06:24:44.002Z,987.93
2019-01-27T06:25:43.992Z,987.90
2019-01-27T06:26:43.981Z,987.94
2019-01-27T06:27:43.964Z,987.92
2019-01-27T06:28:43.958Z,987.89
2019-01-27T06:29:43.942Z,987.84
2019-01-27T06:30:43.932Z,987.87
2019-01-27T06:31:43.921Z,987.83
2019-01-27T06:32:43.919Z,987.83
2019-01-27T06:33:43.902Z,987.82
2019-01-27T06:34:43.891Z,987.80
2019-01-27T06:35:43.882Z,987.83
2019-01-27T06:36:43.872Z,987.81
2019-01-27T06:37:43.858Z,987.82
2019-01-27T06:38:43.848Z,987.84
2019-01-27T06:39:43.844Z,987.78
2019-01-27T06:40:43.827Z,987.81
2019-01-27T06:41:43.817Z,987.84
2019-01-27T06:42:43.805Z,987.82
2019-01-27T06:43:43.797Z,987.77
2019-01-27T06:44:43.783Z,987.78
2019-01-27T06:45:43.773Z,987.73
2019-01-27T06:46:43.766Z,987.74
2019-01-27T06:47:43.754Z,987.74
2019-01-27T06:48:43.745Z,987.74
2019-01-27T06:49:43.735Z,987.73
2019-01-27T06:50:43.725Z,987.74
2019-01-27T06:51:43.709Z,987.72
2019-01-27T06:52:43.699Z,987.68
2019-01-27T06:53:43.689Z,987.65
2019-01-27T06:54:43.682Z,987.63
2019-01-27T06:55:43.668Z,987.64
2019-01-27T06:56:43.659Z,987.66
2019-01-27T06:57:43.647Z,987.61
2019-01-27T06:58:43.637Z,987.58
2019-01-27T06:59:43.627Z,987.57
2019-01-27T07:00:43.621Z,987.59
2019-01-27T07:01:43.607Z,987.59
2019-01-27T07:02:43.594Z,987.56
2019-01-27T07:03:43.583Z,987.58
2019-01-27T07:04:43.575Z,987.62
2019-01-27T07:05:43.564Z,987.60
2019-01-27T07:06:43.552Z,987.57
2019-01-27T07:07:43.543Z,987.56
2019-01-27T07:08:43.529Z,987.52
2019-01-27T07:09:44.262Z,987.45
2019-01-27T07:10:43.512Z,987.51
2019-01-27T07:11:43.504Z,987.49
2019-01-27T07:12:43.490Z,987.41
2019-01-27T07:13:43.477Z,987.47
2019-01-27T07:14:43.467Z,987.51
2019-01-27T07:15:43.458Z,987.49
2019-01-27T07:16:43.448Z,987.52
2019-01-27T07:17:43.436Z,987.48
2019-01-27T07:18:43.424Z,987.51
2019-01-27T07:19:43.416Z,987.41
2019-01-27T07:20:43.406Z,987.42
2019-01-27T07:21:43.395Z,987.43
2019-01-27T07:22:43.383Z,987.42
2019-01-27T07:23:43.373Z,987.37
2019-01-27T07:24:43.361Z,987.36
2019-01-27T07:25:43.351Z,987.37
2019-01-27T07:26:43.340Z,987.38
2019-01-27T07:27:43.329Z,987.34
2019-01-27T07:28:43.318Z,987.32
2019-01-27T07:29:43.309Z,987.35
2019-01-27T07:30:43.300Z,987.36
2019-01-27T07:31:43.288Z,987.37
2019-01-27T07:32:43.276Z,987.36
2019-01-27T07:33:43.269Z,987.36
2019-01-27T07:34:43.259Z,987.30
2019-01-27T07:35:43.252Z,987.33
2019-01-27T07:36:43.233Z,987.29
2019-01-27T07:37:43.224Z,987.30
2019-01-27T07:38:43.218Z,987.31
2019-01-27T07:39:43.207Z,987.23
2019-01-27T07:40:43.195Z,987.29
2019-01-27T07:41:43.182Z,987.26
2019-01-27T07:42:43.170Z,987.19
2019-01-27T07:43:43.166Z,987.21
2019-01-27T07:44:43.153Z,987.18
2019-01-27T07:45:43.138Z,987.15
2019-01-27T07:46:43.128Z,987.15
2019-01-27T07:47:43.118Z,987.13
2019-01-27T07:48:43.108Z,987.11
2019-01-27T07:49:43.097Z,987.15
2019-01-27T07:50:43.089Z,987.07
2019-01-27T07:51:43.076Z,987.13
2019-01-27T07:52:43.065Z,987.06
2019-01-27T07:53:43.053Z,987.13
2019-01-27T07:54:43.048Z,987.10
2019-01-27T07:55:43.033Z,987.06
2019-01-27T07:56:43.023Z,987.01
2019-01-27T07:57:43.015Z,986.97
2019-01-27T07:58:43.003Z,986.96
2019-01-27T07:59:42.990Z,986.98
2019-01-27T08:00:42.981Z,986.97
2019-01-27T08:01:42.969Z,986.98
2019-01-27T08:02:42.959Z,986.97
2019-01-27T08:03:42.949Z,986.98
2019-01-27T08:04:42.937Z,986.95
2019-01-27T08:05:42.927Z,986.95
2019-01-27T08:06:42.916Z,986.94
2019-01-27T08:07:42.905Z,986.94
2019-01-27T08:08:42.894Z,986.96
2019-01-27T08:09:43.438Z,986.93
2019-01-27T08:10:42.877Z,986.93
2019-01-27T08:11:42.868Z,986.95
2019-01-27T08:12:42.851Z,986.91
2019-01-27T08:13:42.841Z,986.91
2019-01-27T08:14:42.841Z,986.88
2019-01-27T08:15:42.820Z,986.88
2019-01-27T08:16:42.814Z,986.86
2019-01-27T08:17:42.801Z,986.78
2019-01-27T08:18:42.790Z,986.75
2019-01-27T08:19:42.780Z,986.78
2019-01-27T08:20:42.767Z,986.77
2019-01-27T08:21:42.761Z,986.81
2019-01-27T08:22:42.748Z,986.80
2019-01-27T08:23:42.734Z,986.80
2019-01-27T08:24:42.726Z,986.79
2019-01-27T08:25:42.719Z,986.80
2019-01-27T08:26:42.708Z,986.72
2019-01-27T08:27:42.694Z,986.76
2019-01-27T08:28:42.684Z,986.72
2019-01-27T08:29:42.675Z,986.74
2019-01-27T08:30:42.662Z,986.69
2019-01-27T08:31:42.652Z,986.71
2019-01-27T08:32:42.640Z,986.73
2019-01-27T08:33:42.630Z,986.69
2019-01-27T08:34:42.621Z,986.70
2019-01-27T08:35:42.611Z,986.68
2019-01-27T08:36:42.601Z,986.68
2019-01-27T08:37:42.588Z,986.71
2019-01-27T08:38:42.577Z,986.71
2019-01-27T08:39:42.566Z,986.73
2019-01-27T08:40:42.556Z,986.70
2019-01-27T08:41:42.545Z,986.70
2019-01-27T08:42:43.411Z,986.71
2019-01-27T08:43:42.527Z,986.68
2019-01-27T08:44:42.514Z,986.65
2019-01-27T08:45:42.507Z,986.63
2019-01-27T08:46:42.497Z,986.55
2019-01-27T08:47:42.484Z,986.55
2019-01-27T08:48:42.472Z,986.54
2019-01-27T08:49:42.462Z,986.53
2019-01-27T08:50:42.453Z,986.52
2019-01-27T08:51:42.450Z,986.47
2019-01-27T08:52:42.432Z,986.51
2019-01-27T08:53:42.419Z,986.50
2019-01-27T08:54:42.408Z,986.49
2019-01-27T08:55:42.395Z,986.48
2019-01-27T08:56:42.389Z,986.47
2019-01-27T08:57:42.376Z,986.49
2019-01-27T08:58:42.366Z,986.49
2019-01-27T08:59:42.353Z,986.50
2019-01-27T09:00:42.344Z,986.55
2019-01-27T09:01:42.333Z,986.54
2019-01-27T09:02:42.326Z,986.54
2019-01-27T09:03:42.312Z,986.53
2019-01-27T09:04:42.305Z,986.53
2019-01-27T09:05:42.291Z,986.48
2019-01-27T09:06:42.280Z,986.54
2019-01-27T09:07:42.268Z,986.46
2019-01-27T09:08:42.261Z,986.43
2019-01-27T09:09:42.248Z,986.50
2019-01-27T09:10:42.239Z,986.47
2019-01-27T09:11:42.226Z,986.46
2019-01-27T09:12:42.222Z,986.42
2019-01-27T09:13:42.205Z,986.39
2019-01-27T09:14:42.199Z,986.38
2019-01-27T09:15:42.184Z,986.42
2019-01-27T09:16:42.177Z,986.39
2019-01-27T09:17:42.164Z,986.42
2019-01-27T09:18:42.155Z,986.36
2019-01-27T09:19:42.142Z,986.29
2019-01-27T09:20:42.133Z,986.29
2019-01-27T09:21:42.129Z,986.28
2019-01-27T09:22:42.112Z,986.26
2019-01-27T09:23:42.099Z,986.27
2019-01-27T09:24:42.089Z,986.35
2019-01-27T09:25:42.078Z,986.27
2019-01-27T09:26:42.067Z,986.24
2019-01-27T09:27:42.066Z,986.20
2019-01-27T09:28:42.047Z,986.19
2019-01-27T09:29:42.038Z,986.22
2019-01-27T09:30:42.024Z,986.22
2019-01-27T09:31:42.017Z,986.15
2019-01-27T09:32:42.004Z,986.14
2019-01-27T09:33:41.994Z,986.12
2019-01-27T09:34:41.983Z,986.12
2019-01-27T09:35:41.975Z,986.12
2019-01-27T09:36:41.961Z,986.09
2019-01-27T09:37:41.950Z,986.01
2019-01-27T09:38:41.941Z,985.99
2019-01-27T09:39:41.928Z,985.95
2019-01-27T09:40:41.919Z,986.02
2019-01-27T09:41:41.908Z,986.03
2019-01-27T09:42:41.899Z,985.99
2019-01-27T09:43:41.888Z,986.02
2019-01-27T09:44:41.887Z,985.93
2019-01-27T09:45:41.865Z,985.91
2019-01-27T09:46:41.856Z,985.89
2019-01-27T09:47:41.844Z,985.93
2019-01-27T09:48:41.832Z,985.93
2019-01-27T09:49:41.823Z,985.91
2019-01-27T09:50:41.810Z,985.87
2019-01-27T09:51:41.802Z,985.86
2019-01-27T09:52:41.789Z,985.86
2019-01-27T09:53:41.780Z,985.85
2019-01-27T09:54:41.771Z,985.85
2019-01-27T09:55:41.760Z,985.85
2019-01-27T09:56:41.754Z,985.85
2019-01-27T09:57:41.741Z,985.80
2019-01-27T09:58:41.724Z,985.77
2019-01-27T09:59:41.717Z,985.81
2019-01-27T10:00:41.710Z,985.83
2019-01-27T10:01:41.694Z,985.82
2019-01-27T10:02:41.683Z,985.87
2019-01-27T10:03:41.672Z,985.86
2019-01-27T10:04:41.661Z,985.81
2019-01-27T10:05:41.651Z,985.79
2019-01-27T10:06:41.638Z,985.81
2019-01-27T10:07:41.630Z,985.80
2019-01-27T10:08:41.620Z,985.81
2019-01-27T10:09:41.609Z,985.77
2019-01-27T10:10:41.598Z,985.77
2019-01-27T10:11:41.587Z,985.84
2019-01-27T10:12:41.577Z,985.80
2019-01-27T10:13:41.566Z,985.84
2019-01-27T10:14:41.555Z,985.76
2019-01-27T10:15:41.544Z,985.79
2019-01-27T10:16:41.536Z,985.73
2019-01-27T10:17:41.523Z,985.68
2019-01-27T10:18:41.512Z,985.71
2019-01-27T10:19:41.503Z,985.70
2019-01-27T10:20:41.490Z,985.66
2019-01-27T10:21:41.479Z,985.73
2019-01-27T10:22:41.467Z,985.63
2019-01-27T10:23:41.457Z,985.67
2019-01-27T10:24:41.447Z,985.64
2019-01-27T10:25:41.437Z,985.64
2019-01-27T10:26:41.435Z,985.72
2019-01-27T10:27:41.415Z,985.62
2019-01-27T10:28:41.404Z,985.62
2019-01-27T10:29:41.391Z,985.60
2019-01-27T10:30:41.384Z,985.60
2019-01-27T10:31:41.372Z,985.61
2019-01-27T10:32:41.363Z,985.56
2019-01-27T10:33:41.349Z,985.58
2019-01-27T10:34:41.341Z,985.55
2019-01-27T10:35:42.936Z,985.57
2019-01-27T10:36:41.319Z,985.57
2019-01-27T10:37:41.317Z,985.50
2019-01-27T10:38:41.298Z,985.51
2019-01-27T10:39:41.285Z,985.45
2019-01-27T10:40:41.277Z,985.47
2019-01-27T10:41:41.267Z,985.45
2019-01-27T10:42:41.255Z,985.49
2019-01-27T10:43:41.244Z,985.50
2019-01-27T10:44:41.232Z,985.46
2019-01-27T10:45:41.226Z,985.51
2019-01-27T10:46:41.211Z,985.42
2019-01-27T10:47:41.201Z,985.46
2019-01-27T10:48:41.191Z,985.50
2019-01-27T10:49:41.179Z,985.41
2019-01-27T10:50:41.171Z,985.47
2019-01-27T10:51:41.158Z,985.38
2019-01-27T10:52:41.149Z,985.38
2019-01-27T10:53:41.136Z,985.37
2019-01-27T10:54:41.125Z,985.41
2019-01-27T10:55:41.119Z,985.42
2019-01-27T10:56:41.106Z,985.41
2019-01-27T10:57:42.455Z,985.33
2019-01-27T10:58:41.086Z,985.37
2019-01-27T10:59:41.071Z,985.32
2019-01-27T11:00:41.061Z,985.30
2019-01-27T11:01:41.342Z,985.30
2019-01-27T11:02:41.044Z,985.28
2019-01-27T11:03:41.028Z,985.24
2019-01-27T11:04:41.019Z,985.19
2019-01-27T11:05:42.048Z,985.18
2019-01-27T11:06:40.998Z,985.09
2019-01-27T11:07:40.987Z,985.14
2019-01-27T11:08:40.979Z,985.16
2019-01-27T11:09:40.967Z,985.04
2019-01-27T11:10:40.956Z,985.12
2019-01-27T11:11:40.943Z,985.09
2019-01-27T11:12:40.934Z,985.12
2019-01-27T11:13:40.921Z,985.10
2019-01-27T11:14:40.910Z,985.16
2019-01-27T11:15:40.901Z,985.17
2019-01-27T11:16:40.890Z,985.12
2019-01-27T11:17:40.882Z,985.09
2019-01-27T11:18:40.871Z,985.02
2019-01-27T11:19:40.909Z,985.08
2019-01-27T11:20:40.856Z,985.08
2019-01-27T11:21:40.839Z,985.06
2019-01-27T11:22:40.828Z,985.05
2019-01-27T11:23:40.815Z,985.06
2019-01-27T11:24:40.808Z,985.00
2019-01-27T11:25:40.796Z,984.99
2019-01-27T11:26:40.791Z,984.99
2019-01-27T11:27:40.774Z,984.97
2019-01-27T11:28:40.764Z,984.93
2019-01-27T11:29:40.763Z,984.95
2019-01-27T11:30:40.741Z,984.90
2019-01-27T11:31:40.734Z,984.90
2019-01-27T11:32:40.721Z,984.83
2019-01-27T11:33:40.710Z,984.84
2019-01-27T11:34:40.698Z,984.84
2019-01-27T11:35:40.689Z,984.81
2019-01-27T11:36:40.682Z,984.76
2019-01-27T11:37:40.666Z,984.74
2019-01-27T11:38:40.656Z,984.77
2019-01-27T11:39:40.644Z,984.73
2019-01-27T11:40:40.634Z,984.76
2019-01-27T11:41:40.624Z,984.77
2019-01-27T11:42:40.611Z,984.72
2019-01-27T11:43:40.603Z,984.70
2019-01-27T11:44:40.601Z,984.68
2019-01-27T11:45:40.581Z,984.62
2019-01-27T11:46:40.572Z,984.64
2019-01-27T11:47:40.558Z,984.57
2019-01-27T11:48:40.550Z,984.59
2019-01-27T11:49:40.538Z,984.53
2019-01-27T11:50:40.527Z,984.48
2019-01-27T11:51:40.515Z,984.51
2019-01-27T11:52:40.508Z,984.47
2019-01-27T11:53:40.495Z,984.45
2019-01-27T11:54:40.484Z,984.47
2019-01-27T11:55:40.472Z,984.55
2019-01-27T11:56:40.462Z,984.60
2019-01-27T11:57:40.454Z,984.59
2019-01-27T11:58:40.444Z,984.56
2019-01-27T11:59:40.430Z,984.50
2019-01-27T12:00:40.423Z,984.48
2019-01-27T12:01:40.411Z,984.45
2019-01-27T12:02:46.569Z,984.40
2019-01-27T12:03:41.392Z,984.43
2019-01-27T12:04:40.378Z,984.43
2019-01-27T12:05:40.370Z,984.43
2019-01-27T12:06:40.358Z,984.43
2019-01-27T12:07:40.348Z,984.40
2019-01-27T12:08:40.334Z,984.40
2019-01-27T12:09:40.330Z,984.38
2019-01-27T12:10:40.312Z,984.42
2019-01-27T12:11:40.307Z,984.39
2019-01-27T12:12:40.293Z,984.37
2019-01-27T12:13:40.286Z,984.35
2019-01-27T12:14:40.270Z,984.34
2019-01-27T12:15:40.260Z,984.33
2019-01-27T12:16:40.251Z,984.34
2019-01-27T12:17:40.242Z,984.38
2019-01-27T12:18:40.228Z,984.35
2019-01-27T12:19:40.450Z,984.28
2019-01-27T12:20:40.205Z,984.29
2019-01-27T12:21:40.197Z,984.23
2019-01-27T12:22:40.185Z,984.30
2019-01-27T12:23:40.176Z,984.29
2019-01-27T12:24:40.165Z,984.28
2019-01-27T12:25:40.195Z,984.29
2019-01-27T12:26:40.142Z,984.31
2019-01-27T12:27:40.132Z,984.27
2019-01-27T12:28:40.121Z,984.32